sensor_id;sensor_type;location;lat;lon;timestamp;temperature;humidity
32217;DHT22;67098;51.140;4.088;2023-05-07T00:01:41;19.90;85.10
32217;DHT22;67098;51.140;4.088;2023-05-07T00:04:06;19.80;85.00
32217;DHT22;67098;51.140;4.088;2023-05-07T00:06:33;19.80;85.10
32217;DHT22;67098;51.140;4.088;2023-05-07T00:08:59;19.80;85.20
32217;DHT22;67098;51.140;4.088;2023-05-07T00:11:27;19.80;85.30
32217;DHT22;67098;51.140;4.088;2023-05-07T00:13:52;19.80;85.30
32217;DHT22;67098;51.140;4.088;2023-05-07T00:16:18;19.80;85.40
32217;DHT22;67098;51.140;4.088;2023-05-07T00:18:44;19.80;85.40
32217;DHT22;67098;51.140;4.088;2023-05-07T00:21:10;19.80;85.50
32217;DHT22;67098;51.140;4.088;2023-05-07T00:23:36;19.70;85.60
32217;DHT22;67098;51.140;4.088;2023-05-07T00:26:02;19.70;85.50
32217;DHT22;67098;51.140;4.088;2023-05-07T00:28:28;19.70;85.60
32217;DHT22;67098;51.140;4.088;2023-05-07T00:30:54;19.60;85.60
32217;DHT22;67098;51.140;4.088;2023-05-07T00:33:20;19.60;85.70
32217;DHT22;67098;51.140;4.088;2023-05-07T00:35:46;19.60;86.00
32217;DHT22;67098;51.140;4.088;2023-05-07T00:38:12;19.50;86.20
32217;DHT22;67098;51.140;4.088;2023-05-07T00:40:37;19.50;86.30
32217;DHT22;67098;51.140;4.088;2023-05-07T00:43:03;19.50;86.60
32217;DHT22;67098;51.140;4.088;2023-05-07T00:45:29;19.40;86.70
32217;DHT22;67098;51.140;4.088;2023-05-07T00:48:00;19.40;86.80
32217;DHT22;67098;51.140;4.088;2023-05-07T00:50:26;19.40;87.10
32217;DHT22;67098;51.140;4.088;2023-05-07T00:52:53;19.40;87.20
32217;DHT22;67098;51.140;4.088;2023-05-07T00:55:19;19.30;87.30
32217;DHT22;67098;51.140;4.088;2023-05-07T00:57:45;19.20;87.50
32217;DHT22;67098;51.140;4.088;2023-05-07T01:00:11;19.20;87.70
32217;DHT22;67098;51.140;4.088;2023-05-07T01:02:41;19.10;87.90
32217;DHT22;67098;51.140;4.088;2023-05-07T01:05:10;19.10;88.20
32217;DHT22;67098;51.140;4.088;2023-05-07T01:07:37;19.00;88.20
32217;DHT22;67098;51.140;4.088;2023-05-07T01:10:05;19.00;88.10
32217;DHT22;67098;51.140;4.088;2023-05-07T01:12:31;18.90;88.30
32217;DHT22;67098;51.140;4.088;2023-05-07T01:14:58;18.90;88.10
32217;DHT22;67098;51.140;4.088;2023-05-07T01:17:24;18.90;88.20
32217;DHT22;67098;51.140;4.088;2023-05-07T01:19:50;18.90;88.30
32217;DHT22;67098;51.140;4.088;2023-05-07T01:22:17;18.90;88.50
32217;DHT22;67098;51.140;4.088;2023-05-07T01:24:46;18.90;88.50
32217;DHT22;67098;51.140;4.088;2023-05-07T01:27:12;19.00;88.00
32217;DHT22;67098;51.140;4.088;2023-05-07T01:29:38;19.00;87.50
32217;DHT22;67098;51.140;4.088;2023-05-07T01:32:05;18.90;87.50
32217;DHT22;67098;51.140;4.088;2023-05-07T01:34:32;18.90;87.30
32217;DHT22;67098;51.140;4.088;2023-05-07T01:37:00;18.90;88.10
32217;DHT22;67098;51.140;4.088;2023-05-07T01:39:27;18.90;87.70
32217;DHT22;67098;51.140;4.088;2023-05-07T01:41:56;18.80;87.90
32217;DHT22;67098;51.140;4.088;2023-05-07T01:44:22;18.90;87.90
32217;DHT22;67098;51.140;4.088;2023-05-07T01:46:49;18.80;88.00
32217;DHT22;67098;51.140;4.088;2023-05-07T01:49:16;18.80;88.10
32217;DHT22;67098;51.140;4.088;2023-05-07T01:51:42;18.80;87.90
32217;DHT22;67098;51.140;4.088;2023-05-07T01:54:09;18.80;88.10
32217;DHT22;67098;51.140;4.088;2023-05-07T01:56:35;18.80;87.90
32217;DHT22;67098;51.140;4.088;2023-05-07T01:59:01;18.90;87.30
32217;DHT22;67098;51.140;4.088;2023-05-07T02:01:27;18.80;87.70
32217;DHT22;67098;51.140;4.088;2023-05-07T02:03:53;18.80;87.20
32217;DHT22;67098;51.140;4.088;2023-05-07T02:06:19;19.00;87.10
32217;DHT22;67098;51.140;4.088;2023-05-07T02:08:46;18.90;87.30
32217;DHT22;67098;51.140;4.088;2023-05-07T02:11:12;18.80;87.70
32217;DHT22;67098;51.140;4.088;2023-05-07T02:13:37;18.90;88.10
32217;DHT22;67098;51.140;4.088;2023-05-07T02:16:03;18.90;88.30
32217;DHT22;67098;51.140;4.088;2023-05-07T02:18:29;18.90;88.70
32217;DHT22;67098;51.140;4.088;2023-05-07T02:20:55;18.90;88.90
32217;DHT22;67098;51.140;4.088;2023-05-07T02:23:21;18.90;88.90
32217;DHT22;67098;51.140;4.088;2023-05-07T02:25:46;18.90;88.80
32217;DHT22;67098;51.140;4.088;2023-05-07T02:28:12;18.90;88.90
32217;DHT22;67098;51.140;4.088;2023-05-07T02:30:38;18.90;89.10
32217;DHT22;67098;51.140;4.088;2023-05-07T02:33:05;18.80;89.10
32217;DHT22;67098;51.140;4.088;2023-05-07T02:35:31;18.80;89.20
32217;DHT22;67098;51.140;4.088;2023-05-07T02:37:57;18.80;89.40
32217;DHT22;67098;51.140;4.088;2023-05-07T02:40:23;18.80;89.50
32217;DHT22;67098;51.140;4.088;2023-05-07T02:42:48;18.80;89.60
32217;DHT22;67098;51.140;4.088;2023-05-07T02:45:14;18.70;89.80
32217;DHT22;67098;51.140;4.088;2023-05-07T02:47:40;18.70;89.80
32217;DHT22;67098;51.140;4.088;2023-05-07T02:50:06;18.70;90.00
32217;DHT22;67098;51.140;4.088;2023-05-07T02:52:32;18.60;90.10
32217;DHT22;67098;51.140;4.088;2023-05-07T02:54:58;18.60;90.20
32217;DHT22;67098;51.140;4.088;2023-05-07T02:57:23;18.60;90.20
32217;DHT22;67098;51.140;4.088;2023-05-07T02:59:49;18.60;90.20
32217;DHT22;67098;51.140;4.088;2023-05-07T03:02:14;18.60;90.30
32217;DHT22;67098;51.140;4.088;2023-05-07T03:04:40;18.50;90.20
32217;DHT22;67098;51.140;4.088;2023-05-07T03:07:06;18.60;90.00
32217;DHT22;67098;51.140;4.088;2023-05-07T03:09:32;18.50;90.00
32217;DHT22;67098;51.140;4.088;2023-05-07T03:11:58;18.50;90.00
32217;DHT22;67098;51.140;4.088;2023-05-07T03:14:23;18.50;90.00
32217;DHT22;67098;51.140;4.088;2023-05-07T03:16:49;18.50;90.10
32217;DHT22;67098;51.140;4.088;2023-05-07T03:19:15;18.50;90.20
32217;DHT22;67098;51.140;4.088;2023-05-07T03:21:41;18.40;90.30
32217;DHT22;67098;51.140;4.088;2023-05-07T03:24:07;18.40;90.40
32217;DHT22;67098;51.140;4.088;2023-05-07T03:26:32;18.50;90.50
32217;DHT22;67098;51.140;4.088;2023-05-07T03:28:58;18.50;90.70
32217;DHT22;67098;51.140;4.088;2023-05-07T03:31:24;18.40;90.80
32217;DHT22;67098;51.140;4.088;2023-05-07T03:33:53;18.40;90.80
32217;DHT22;67098;51.140;4.088;2023-05-07T03:36:20;18.40;90.80
32217;DHT22;67098;51.140;4.088;2023-05-07T03:38:46;18.40;91.00
32217;DHT22;67098;51.140;4.088;2023-05-07T03:41:12;18.40;91.10
32217;DHT22;67098;51.140;4.088;2023-05-07T03:43:37;18.40;91.10
32217;DHT22;67098;51.140;4.088;2023-05-07T03:46:03;18.40;91.10
32217;DHT22;67098;51.140;4.088;2023-05-07T03:48:29;18.40;91.10
32217;DHT22;67098;51.140;4.088;2023-05-07T03:50:55;18.40;91.10
32217;DHT22;67098;51.140;4.088;2023-05-07T03:53:21;18.40;91.10
32217;DHT22;67098;51.140;4.088;2023-05-07T03:55:46;18.40;91.10
32217;DHT22;67098;51.140;4.088;2023-05-07T03:58:12;18.50;91.10
32217;DHT22;67098;51.140;4.088;2023-05-07T04:00:38;18.50;91.20
32217;DHT22;67098;51.140;4.088;2023-05-07T04:03:05;18.50;91.30
32217;DHT22;67098;51.140;4.088;2023-05-07T04:05:31;18.40;91.30
32217;DHT22;67098;51.140;4.088;2023-05-07T04:08:00;18.40;91.40
32217;DHT22;67098;51.140;4.088;2023-05-07T04:10:26;18.40;91.40
32217;DHT22;67098;51.140;4.088;2023-05-07T04:12:51;18.40;91.50
32217;DHT22;67098;51.140;4.088;2023-05-07T04:15:17;18.40;91.40
32217;DHT22;67098;51.140;4.088;2023-05-07T04:17:43;18.50;91.50
32217;DHT22;67098;51.140;4.088;2023-05-07T04:20:10;18.50;91.20
32217;DHT22;67098;51.140;4.088;2023-05-07T04:22:37;18.60;91.00
32217;DHT22;67098;51.140;4.088;2023-05-07T04:25:03;18.60;90.90
32217;DHT22;67098;51.140;4.088;2023-05-07T04:27:29;18.60;90.90
32217;DHT22;67098;51.140;4.088;2023-05-07T04:29:55;18.60;91.00
32217;DHT22;67098;51.140;4.088;2023-05-07T04:32:23;18.60;91.00
32217;DHT22;67098;51.140;4.088;2023-05-07T04:34:50;18.60;91.10
32217;DHT22;67098;51.140;4.088;2023-05-07T04:37:16;18.60;91.10
32217;DHT22;67098;51.140;4.088;2023-05-07T04:39:42;18.60;91.10
32217;DHT22;67098;51.140;4.088;2023-05-07T04:42:08;18.60;91.20
32217;DHT22;67098;51.140;4.088;2023-05-07T04:44:34;18.70;91.10
32217;DHT22;67098;51.140;4.088;2023-05-07T04:47:02;18.70;91.20
32217;DHT22;67098;51.140;4.088;2023-05-07T04:49:28;18.70;91.20
32217;DHT22;67098;51.140;4.088;2023-05-07T04:51:53;18.70;91.20
32217;DHT22;67098;51.140;4.088;2023-05-07T04:54:19;18.70;91.30
32217;DHT22;67098;51.140;4.088;2023-05-07T04:56:45;18.80;91.20
32217;DHT22;67098;51.140;4.088;2023-05-07T04:59:10;18.80;91.20
32217;DHT22;67098;51.140;4.088;2023-05-07T05:01:36;18.80;91.10
32217;DHT22;67098;51.140;4.088;2023-05-07T05:04:02;18.90;91.10
32217;DHT22;67098;51.140;4.088;2023-05-07T05:06:28;18.90;91.00
32217;DHT22;67098;51.140;4.088;2023-05-07T05:08:53;18.90;90.90
32217;DHT22;67098;51.140;4.088;2023-05-07T05:11:19;18.90;91.00
32217;DHT22;67098;51.140;4.088;2023-05-07T05:13:46;19.00;91.00
32217;DHT22;67098;51.140;4.088;2023-05-07T05:16:14;19.00;91.10
32217;DHT22;67098;51.140;4.088;2023-05-07T05:18:40;19.10;91.10
32217;DHT22;67098;51.140;4.088;2023-05-07T05:21:06;19.10;91.20
32217;DHT22;67098;51.140;4.088;2023-05-07T05:23:32;19.10;91.20
32217;DHT22;67098;51.140;4.088;2023-05-07T05:25:58;19.10;91.20
32217;DHT22;67098;51.140;4.088;2023-05-07T05:28:24;19.20;91.20
32217;DHT22;67098;51.140;4.088;2023-05-07T05:30:49;19.20;91.10
32217;DHT22;67098;51.140;4.088;2023-05-07T05:33:15;19.30;91.10
32217;DHT22;67098;51.140;4.088;2023-05-07T05:35:42;19.30;91.00
32217;DHT22;67098;51.140;4.088;2023-05-07T05:38:08;19.30;91.00
32217;DHT22;67098;51.140;4.088;2023-05-07T05:40:33;19.30;90.90
32217;DHT22;67098;51.140;4.088;2023-05-07T05:42:59;19.40;91.00
32217;DHT22;67098;51.140;4.088;2023-05-07T05:45:25;19.40;90.90
32217;DHT22;67098;51.140;4.088;2023-05-07T05:47:51;19.50;90.90
32217;DHT22;67098;51.140;4.088;2023-05-07T05:50:17;19.50;90.90
32217;DHT22;67098;51.140;4.088;2023-05-07T05:52:42;19.50;90.80
32217;DHT22;67098;51.140;4.088;2023-05-07T05:55:08;19.50;90.80
32217;DHT22;67098;51.140;4.088;2023-05-07T05:57:34;19.50;90.90
32217;DHT22;67098;51.140;4.088;2023-05-07T06:00:01;19.60;91.00
32217;DHT22;67098;51.140;4.088;2023-05-07T06:02:28;19.60;91.00
32217;DHT22;67098;51.140;4.088;2023-05-07T06:04:53;19.60;91.00
32217;DHT22;67098;51.140;4.088;2023-05-07T06:07:19;19.60;90.90
32217;DHT22;67098;51.140;4.088;2023-05-07T06:09:45;19.70;91.00
32217;DHT22;67098;51.140;4.088;2023-05-07T06:12:11;19.70;91.20
32217;DHT22;67098;51.140;4.088;2023-05-07T06:14:37;19.70;91.20
32217;DHT22;67098;51.140;4.088;2023-05-07T06:17:02;19.70;91.10
32217;DHT22;67098;51.140;4.088;2023-05-07T06:19:28;19.80;91.00
32217;DHT22;67098;51.140;4.088;2023-05-07T06:21:54;19.90;90.90
32217;DHT22;67098;51.140;4.088;2023-05-07T06:24:22;20.00;90.90
32217;DHT22;67098;51.140;4.088;2023-05-07T06:26:47;20.00;90.80
32217;DHT22;67098;51.140;4.088;2023-05-07T06:29:13;20.10;90.70
32217;DHT22;67098;51.140;4.088;2023-05-07T06:31:39;20.10;90.60
32217;DHT22;67098;51.140;4.088;2023-05-07T06:34:04;20.20;90.60
32217;DHT22;67098;51.140;4.088;2023-05-07T06:36:30;20.20;90.60
32217;DHT22;67098;51.140;4.088;2023-05-07T06:38:56;20.30;90.80
32217;DHT22;67098;51.140;4.088;2023-05-07T06:41:22;20.30;90.80
32217;DHT22;67098;51.140;4.088;2023-05-07T06:43:48;20.40;90.90
32217;DHT22;67098;51.140;4.088;2023-05-07T06:46:14;20.40;90.80
32217;DHT22;67098;51.140;4.088;2023-05-07T06:48:40;20.50;90.70
32217;DHT22;67098;51.140;4.088;2023-05-07T06:51:05;20.60;90.50
32217;DHT22;67098;51.140;4.088;2023-05-07T06:53:31;20.60;90.40
32217;DHT22;67098;51.140;4.088;2023-05-07T06:55:57;20.70;90.20
32217;DHT22;67098;51.140;4.088;2023-05-07T06:58:23;20.80;90.20
32217;DHT22;67098;51.140;4.088;2023-05-07T07:00:48;20.80;89.80
32217;DHT22;67098;51.140;4.088;2023-05-07T07:03:14;20.90;89.30
32217;DHT22;67098;51.140;4.088;2023-05-07T07:05:41;20.90;89.40
32217;DHT22;67098;51.140;4.088;2023-05-07T07:08:07;21.00;89.40
32217;DHT22;67098;51.140;4.088;2023-05-07T07:10:33;21.00;89.30
32217;DHT22;67098;51.140;4.088;2023-05-07T07:12:58;21.10;89.70
32217;DHT22;67098;51.140;4.088;2023-05-07T07:15:25;21.20;89.80
32217;DHT22;67098;51.140;4.088;2023-05-07T07:17:51;21.20;89.30
32217;DHT22;67098;51.140;4.088;2023-05-07T07:20:17;21.20;89.10
32217;DHT22;67098;51.140;4.088;2023-05-07T07:22:42;21.20;89.20
32217;DHT22;67098;51.140;4.088;2023-05-07T07:25:09;21.30;89.10
32217;DHT22;67098;51.140;4.088;2023-05-07T07:27:35;21.30;88.70
32217;DHT22;67098;51.140;4.088;2023-05-07T07:30:01;21.40;88.40
32217;DHT22;67098;51.140;4.088;2023-05-07T07:32:27;21.50;88.10
32217;DHT22;67098;51.140;4.088;2023-05-07T07:34:52;21.50;87.80
32217;DHT22;67098;51.140;4.088;2023-05-07T07:37:18;21.50;87.90
32217;DHT22;67098;51.140;4.088;2023-05-07T07:39:43;21.50;88.10
32217;DHT22;67098;51.140;4.088;2023-05-07T07:42:09;21.40;88.00
32217;DHT22;67098;51.140;4.088;2023-05-07T07:44:35;21.40;88.30
32217;DHT22;67098;51.140;4.088;2023-05-07T07:47:00;21.40;88.40
32217;DHT22;67098;51.140;4.088;2023-05-07T07:49:26;21.40;88.50
32217;DHT22;67098;51.140;4.088;2023-05-07T07:51:52;21.30;88.20
32217;DHT22;67098;51.140;4.088;2023-05-07T07:54:18;21.30;88.50
32217;DHT22;67098;51.140;4.088;2023-05-07T07:56:44;21.30;88.40
32217;DHT22;67098;51.140;4.088;2023-05-07T07:59:09;21.20;88.60
32217;DHT22;67098;51.140;4.088;2023-05-07T08:01:35;21.30;88.90
32217;DHT22;67098;51.140;4.088;2023-05-07T08:04:01;21.30;88.70
32217;DHT22;67098;51.140;4.088;2023-05-07T08:06:28;21.30;89.00
32217;DHT22;67098;51.140;4.088;2023-05-07T08:08:54;21.30;89.10
32217;DHT22;67098;51.140;4.088;2023-05-07T08:11:20;21.30;89.30
32217;DHT22;67098;51.140;4.088;2023-05-07T08:13:46;21.30;89.90
32217;DHT22;67098;51.140;4.088;2023-05-07T08:16:13;21.30;90.00
32217;DHT22;67098;51.140;4.088;2023-05-07T08:18:38;21.20;90.20
32217;DHT22;67098;51.140;4.088;2023-05-07T08:21:04;21.10;90.10
32217;DHT22;67098;51.140;4.088;2023-05-07T08:23:30;21.10;90.10
32217;DHT22;67098;51.140;4.088;2023-05-07T08:25:55;21.10;90.10
32217;DHT22;67098;51.140;4.088;2023-05-07T08:28:21;21.10;90.00
32217;DHT22;67098;51.140;4.088;2023-05-07T08:30:47;21.00;90.10
32217;DHT22;67098;51.140;4.088;2023-05-07T08:33:13;21.00;90.10
32217;DHT22;67098;51.140;4.088;2023-05-07T08:35:38;21.00;90.30
32217;DHT22;67098;51.140;4.088;2023-05-07T08:38:04;20.90;90.30
32217;DHT22;67098;51.140;4.088;2023-05-07T08:40:36;20.90;90.40
32217;DHT22;67098;51.140;4.088;2023-05-07T08:43:02;20.90;90.60
32217;DHT22;67098;51.140;4.088;2023-05-07T08:45:29;20.90;90.70
32217;DHT22;67098;51.140;4.088;2023-05-07T08:47:59;20.80;91.00
32217;DHT22;67098;51.140;4.088;2023-05-07T08:50:25;20.80;91.20
32217;DHT22;67098;51.140;4.088;2023-05-07T08:52:51;20.80;91.20
32217;DHT22;67098;51.140;4.088;2023-05-07T08:55:17;20.80;91.30
32217;DHT22;67098;51.140;4.088;2023-05-07T08:57:43;20.80;91.20
32217;DHT22;67098;51.140;4.088;2023-05-07T09:00:09;20.80;91.20
32217;DHT22;67098;51.140;4.088;2023-05-07T09:02:36;20.80;91.30
32217;DHT22;67098;51.140;4.088;2023-05-07T09:05:02;20.80;91.20
32217;DHT22;67098;51.140;4.088;2023-05-07T09:07:28;20.80;91.20
32217;DHT22;67098;51.140;4.088;2023-05-07T09:09:55;20.80;91.20
32217;DHT22;67098;51.140;4.088;2023-05-07T09:12:22;20.80;91.20
32217;DHT22;67098;51.140;4.088;2023-05-07T09:14:49;20.80;91.20
32217;DHT22;67098;51.140;4.088;2023-05-07T09:17:17;20.90;91.20
32217;DHT22;67098;51.140;4.088;2023-05-07T09:19:47;20.90;91.20
32217;DHT22;67098;51.140;4.088;2023-05-07T09:22:13;20.90;91.10
32217;DHT22;67098;51.140;4.088;2023-05-07T09:24:39;20.90;91.00
32217;DHT22;67098;51.140;4.088;2023-05-07T09:27:06;20.90;91.10
32217;DHT22;67098;51.140;4.088;2023-05-07T09:29:32;21.00;91.20
32217;DHT22;67098;51.140;4.088;2023-05-07T09:32:07;21.00;91.20
32217;DHT22;67098;51.140;4.088;2023-05-07T09:34:33;21.00;91.40
32217;DHT22;67098;51.140;4.088;2023-05-07T09:37:04;21.00;91.40
32217;DHT22;67098;51.140;4.088;2023-05-07T09:39:46;21.10;91.40
32217;DHT22;67098;51.140;4.088;2023-05-07T09:42:13;21.10;91.20
32217;DHT22;67098;51.140;4.088;2023-05-07T09:44:43;21.10;91.20
32217;DHT22;67098;51.140;4.088;2023-05-07T09:47:10;21.20;91.20
32217;DHT22;67098;51.140;4.088;2023-05-07T09:49:39;21.20;91.20
32217;DHT22;67098;51.140;4.088;2023-05-07T09:52:06;21.20;91.10
32217;DHT22;67098;51.140;4.088;2023-05-07T09:54:35;21.30;91.10
32217;DHT22;67098;51.140;4.088;2023-05-07T09:57:05;21.40;91.20
32217;DHT22;67098;51.140;4.088;2023-05-07T09:59:32;21.30;91.10
32217;DHT22;67098;51.140;4.088;2023-05-07T10:02:00;21.40;91.00
32217;DHT22;67098;51.140;4.088;2023-05-07T10:04:27;21.50;91.10
32217;DHT22;67098;51.140;4.088;2023-05-07T10:06:53;21.50;91.00
32217;DHT22;67098;51.140;4.088;2023-05-07T10:09:21;21.60;91.10
32217;DHT22;67098;51.140;4.088;2023-05-07T10:11:49;21.60;91.10
32217;DHT22;67098;51.140;4.088;2023-05-07T10:14:15;21.70;90.90
32217;DHT22;67098;51.140;4.088;2023-05-07T10:16:41;21.70;90.90
32217;DHT22;67098;51.140;4.088;2023-05-07T10:19:08;21.80;90.90
32217;DHT22;67098;51.140;4.088;2023-05-07T10:21:39;21.90;90.80
32217;DHT22;67098;51.140;4.088;2023-05-07T10:24:34;21.90;90.50
32217;DHT22;67098;51.140;4.088;2023-05-07T10:27:04;22.00;90.50
32217;DHT22;67098;51.140;4.088;2023-05-07T10:30:00;22.00;90.30
32217;DHT22;67098;51.140;4.088;2023-05-07T10:32:44;22.00;90.10
32217;DHT22;67098;51.140;4.088;2023-05-07T10:35:24;22.20;89.80
32217;DHT22;67098;51.140;4.088;2023-05-07T10:37:51;22.20;89.60
32217;DHT22;67098;51.140;4.088;2023-05-07T10:40:17;22.20;89.10
32217;DHT22;67098;51.140;4.088;2023-05-07T10:42:58;22.30;89.40
32217;DHT22;67098;51.140;4.088;2023-05-07T10:45:25;22.40;89.10
32217;DHT22;67098;51.140;4.088;2023-05-07T10:48:16;22.60;88.90
32217;DHT22;67098;51.140;4.088;2023-05-07T10:50:43;22.60;88.20
32217;DHT22;67098;51.140;4.088;2023-05-07T10:55:48;22.90;88.20
32217;DHT22;67098;51.140;4.088;2023-05-07T10:58:27;22.90;88.40
32217;DHT22;67098;51.140;4.088;2023-05-07T11:01:01;23.10;88.40
32217;DHT22;67098;51.140;4.088;2023-05-07T11:03:27;23.20;87.30
32217;DHT22;67098;51.140;4.088;2023-05-07T11:06:13;23.30;87.90
32217;DHT22;67098;51.140;4.088;2023-05-07T11:08:57;23.40;87.40
32217;DHT22;67098;51.140;4.088;2023-05-07T11:11:55;23.40;87.50
32217;DHT22;67098;51.140;4.088;2023-05-07T11:17:06;23.40;86.60
32217;DHT22;67098;51.140;4.088;2023-05-07T11:19:54;23.30;87.20
32217;DHT22;67098;51.140;4.088;2023-05-07T11:25:02;23.50;87.10
32217;DHT22;67098;51.140;4.088;2023-05-07T11:27:29;23.60;86.90
32217;DHT22;67098;51.140;4.088;2023-05-07T11:29:56;23.70;86.90
32217;DHT22;67098;51.140;4.088;2023-05-07T11:32:25;23.80;86.80
32217;DHT22;67098;51.140;4.088;2023-05-07T11:34:52;23.90;86.40
32217;DHT22;67098;51.140;4.088;2023-05-07T11:37:19;24.00;86.20
32217;DHT22;67098;51.140;4.088;2023-05-07T11:39:45;24.10;85.80
32217;DHT22;67098;51.140;4.088;2023-05-07T11:42:32;24.30;85.20
32217;DHT22;67098;51.140;4.088;2023-05-07T11:44:58;24.40;84.70
32217;DHT22;67098;51.140;4.088;2023-05-07T11:47:24;24.50;85.30
32217;DHT22;67098;51.140;4.088;2023-05-07T11:49:54;24.60;84.60
32217;DHT22;67098;51.140;4.088;2023-05-07T11:52:21;24.70;83.70
32217;DHT22;67098;51.140;4.088;2023-05-07T11:54:55;24.80;84.00
32217;DHT22;67098;51.140;4.088;2023-05-07T11:57:22;24.90;83.80
32217;DHT22;67098;51.140;4.088;2023-05-07T11:59:53;25.10;83.20
32217;DHT22;67098;51.140;4.088;2023-05-07T12:02:19;25.10;83.20
32217;DHT22;67098;51.140;4.088;2023-05-07T12:04:44;25.30;83.00
32217;DHT22;67098;51.140;4.088;2023-05-07T12:07:16;25.40;82.80
32217;DHT22;67098;51.140;4.088;2023-05-07T12:09:44;25.60;81.50
32217;DHT22;67098;51.140;4.088;2023-05-07T12:12:10;25.50;80.70
32217;DHT22;67098;51.140;4.088;2023-05-07T12:14:43;25.60;81.30
32217;DHT22;67098;51.140;4.088;2023-05-07T12:17:10;25.70;81.20
32217;DHT22;67098;51.140;4.088;2023-05-07T12:19:38;25.80;80.90
32217;DHT22;67098;51.140;4.088;2023-05-07T12:22:04;26.00;80.60
32217;DHT22;67098;51.140;4.088;2023-05-07T12:24:56;26.00;79.40
32217;DHT22;67098;51.140;4.088;2023-05-07T12:27:22;26.10;78.80
32217;DHT22;67098;51.140;4.088;2023-05-07T12:29:48;26.10;79.10
32217;DHT22;67098;51.140;4.088;2023-05-07T12:32:19;26.10;79.20
32217;DHT22;67098;51.140;4.088;2023-05-07T12:34:47;26.20;79.30
32217;DHT22;67098;51.140;4.088;2023-05-07T12:37:15;26.40;78.30
32217;DHT22;67098;51.140;4.088;2023-05-07T12:42:40;26.80;76.80
32217;DHT22;67098;51.140;4.088;2023-05-07T12:45:13;26.90;76.80
32217;DHT22;67098;51.140;4.088;2023-05-07T12:47:44;26.90;75.60
32217;DHT22;67098;51.140;4.088;2023-05-07T12:50:10;26.90;75.10
32217;DHT22;67098;51.140;4.088;2023-05-07T12:52:37;27.00;75.50
32217;DHT22;67098;51.140;4.088;2023-05-07T12:55:07;26.90;75.30
32217;DHT22;67098;51.140;4.088;2023-05-07T12:57:40;26.90;73.90
32217;DHT22;67098;51.140;4.088;2023-05-07T13:00:06;26.80;73.90
32217;DHT22;67098;51.140;4.088;2023-05-07T13:02:33;26.80;74.10
32217;DHT22;67098;51.140;4.088;2023-05-07T13:05:00;26.60;73.70
32217;DHT22;67098;51.140;4.088;2023-05-07T13:07:25;26.60;74.00
32217;DHT22;67098;51.140;4.088;2023-05-07T13:09:51;26.40;74.40
32217;DHT22;67098;51.140;4.088;2023-05-07T13:12:17;26.30;74.60
32217;DHT22;67098;51.140;4.088;2023-05-07T13:14:42;26.00;75.00
32217;DHT22;67098;51.140;4.088;2023-05-07T13:17:08;25.80;75.80
32217;DHT22;67098;51.140;4.088;2023-05-07T13:19:33;25.70;76.70
32217;DHT22;67098;51.140;4.088;2023-05-07T13:21:59;25.50;77.10
32217;DHT22;67098;51.140;4.088;2023-05-07T13:24:25;25.50;78.20
32217;DHT22;67098;51.140;4.088;2023-05-07T13:26:51;25.50;78.60
32217;DHT22;67098;51.140;4.088;2023-05-07T13:29:16;25.50;78.70
32217;DHT22;67098;51.140;4.088;2023-05-07T13:31:42;25.50;78.80
32217;DHT22;67098;51.140;4.088;2023-05-07T13:34:09;25.60;78.80
32217;DHT22;67098;51.140;4.088;2023-05-07T13:36:35;25.70;78.80
32217;DHT22;67098;51.140;4.088;2023-05-07T13:39:03;25.80;77.40
32217;DHT22;67098;51.140;4.088;2023-05-07T13:41:29;25.90;77.40
32217;DHT22;67098;51.140;4.088;2023-05-07T13:43:56;26.00;75.50
32217;DHT22;67098;51.140;4.088;2023-05-07T13:46:21;26.00;75.30
32217;DHT22;67098;51.140;4.088;2023-05-07T13:48:47;26.10;75.30
32217;DHT22;67098;51.140;4.088;2023-05-07T13:51:13;26.10;75.40
32217;DHT22;67098;51.140;4.088;2023-05-07T13:53:39;26.00;75.50
32217;DHT22;67098;51.140;4.088;2023-05-07T13:56:05;26.00;76.00
32217;DHT22;67098;51.140;4.088;2023-05-07T13:58:30;26.00;75.20
32217;DHT22;67098;51.140;4.088;2023-05-07T14:00:56;26.00;76.10
32217;DHT22;67098;51.140;4.088;2023-05-07T14:03:22;26.00;76.00
32217;DHT22;67098;51.140;4.088;2023-05-07T14:05:47;25.90;75.80
32217;DHT22;67098;51.140;4.088;2023-05-07T14:08:13;25.70;76.00
32217;DHT22;67098;51.140;4.088;2023-05-07T14:10:39;25.50;77.00
32217;DHT22;67098;51.140;4.088;2023-05-07T14:13:05;25.60;76.60
32217;DHT22;67098;51.140;4.088;2023-05-07T14:15:31;25.80;75.20
32217;DHT22;67098;51.140;4.088;2023-05-07T14:18:00;25.90;74.70
32217;DHT22;67098;51.140;4.088;2023-05-07T14:20:27;26.20;75.00
32217;DHT22;67098;51.140;4.088;2023-05-07T14:22:52;26.40;74.30
32217;DHT22;67098;51.140;4.088;2023-05-07T14:25:18;26.40;73.30
32217;DHT22;67098;51.140;4.088;2023-05-07T14:27:44;26.20;72.40
32217;DHT22;67098;51.140;4.088;2023-05-07T14:30:09;26.00;73.50
32217;DHT22;67098;51.140;4.088;2023-05-07T14:32:35;26.00;73.80
32217;DHT22;67098;51.140;4.088;2023-05-07T14:35:01;26.00;74.90
32217;DHT22;67098;51.140;4.088;2023-05-07T14:37:27;26.10;75.60
32217;DHT22;67098;51.140;4.088;2023-05-07T14:39:53;26.20;75.10
32217;DHT22;67098;51.140;4.088;2023-05-07T14:42:19;26.40;74.90
32217;DHT22;67098;51.140;4.088;2023-05-07T14:44:44;26.60;74.30
32217;DHT22;67098;51.140;4.088;2023-05-07T14:47:10;26.80;74.10
32217;DHT22;67098;51.140;4.088;2023-05-07T14:49:36;26.60;72.70
32217;DHT22;67098;51.140;4.088;2023-05-07T14:52:02;26.40;73.70
32217;DHT22;67098;51.140;4.088;2023-05-07T14:54:27;26.20;75.30
32217;DHT22;67098;51.140;4.088;2023-05-07T14:56:53;26.20;75.70
32217;DHT22;67098;51.140;4.088;2023-05-07T14:59:19;26.30;75.90
32217;DHT22;67098;51.140;4.088;2023-05-07T15:01:47;26.70;74.80
32217;DHT22;67098;51.140;4.088;2023-05-07T15:04:13;26.90;72.90
32217;DHT22;67098;51.140;4.088;2023-05-07T15:06:39;26.80;72.10
32217;DHT22;67098;51.140;4.088;2023-05-07T15:09:05;26.60;72.80
32217;DHT22;67098;51.140;4.088;2023-05-07T15:11:30;26.40;73.40
32217;DHT22;67098;51.140;4.088;2023-05-07T15:13:56;26.10;73.80
32217;DHT22;67098;51.140;4.088;2023-05-07T15:16:22;26.00;74.80
32217;DHT22;67098;51.140;4.088;2023-05-07T15:18:48;26.00;76.10
32217;DHT22;67098;51.140;4.088;2023-05-07T15:21:14;26.10;75.10
32217;DHT22;67098;51.140;4.088;2023-05-07T15:23:40;26.10;75.60
32217;DHT22;67098;51.140;4.088;2023-05-07T15:26:06;26.20;75.90
32217;DHT22;67098;51.140;4.088;2023-05-07T15:28:33;26.40;75.00
32217;DHT22;67098;51.140;4.088;2023-05-07T15:30:59;26.60;73.70
32217;DHT22;67098;51.140;4.088;2023-05-07T15:33:25;26.60;74.10
32217;DHT22;67098;51.140;4.088;2023-05-07T15:35:50;26.60;74.00
32217;DHT22;67098;51.140;4.088;2023-05-07T15:38:16;26.70;73.10
32217;DHT22;67098;51.140;4.088;2023-05-07T15:40:42;26.70;71.60